sensor_id;sensor_type;location;lat;lon;timestamp;temperature;humidity
24668;DHT22;12793;48.014;0.232;2022-07-06T00:01:22;16.80;53.60
24668;DHT22;12793;48.014;0.232;2022-07-06T00:03:48;16.80;53.70
24668;DHT22;12793;48.014;0.232;2022-07-06T00:06:14;16.80;53.70
24668;DHT22;12793;48.014;0.232;2022-07-06T00:08:42;16.80;53.80
24668;DHT22;12793;48.014;0.232;2022-07-06T00:11:09;16.80;53.90
24668;DHT22;12793;48.014;0.232;2022-07-06T00:13:36;16.70;53.80
24668;DHT22;12793;48.014;0.232;2022-07-06T00:16:02;16.70;53.90
24668;DHT22;12793;48.014;0.232;2022-07-06T00:18:28;16.80;54.00
24668;DHT22;12793;48.014;0.232;2022-07-06T00:20:54;16.70;54.00
24668;DHT22;12793;48.014;0.232;2022-07-06T00:23:20;16.70;54.10
24668;DHT22;12793;48.014;0.232;2022-07-06T00:25:45;16.60;54.30
24668;DHT22;12793;48.014;0.232;2022-07-06T00:28:13;16.60;54.20
24668;DHT22;12793;48.014;0.232;2022-07-06T00:30:39;16.50;54.40
24668;DHT22;12793;48.014;0.232;2022-07-06T00:33:05;16.50;54.60
24668;DHT22;12793;48.014;0.232;2022-07-06T00:35:31;16.50;54.70
24668;DHT22;12793;48.014;0.232;2022-07-06T00:37:57;16.40;54.90
24668;DHT22;12793;48.014;0.232;2022-07-06T00:40:23;16.40;54.90
24668;DHT22;12793;48.014;0.232;2022-07-06T00:42:48;16.40;55.00
24668;DHT22;12793;48.014;0.232;2022-07-06T00:45:16;16.40;55.20
24668;DHT22;12793;48.014;0.232;2022-07-06T00:47:43;16.40;55.20
24668;DHT22;12793;48.014;0.232;2022-07-06T00:50:11;16.40;55.20
24668;DHT22;12793;48.014;0.232;2022-07-06T00:52:46;16.40;55.30
24668;DHT22;12793;48.014;0.232;2022-07-06T00:55:15;16.40;55.40
24668;DHT22;12793;48.014;0.232;2022-07-06T00:57:43;16.40;55.30
24668;DHT22;12793;48.014;0.232;2022-07-06T01:00:11;16.30;55.30
24668;DHT22;12793;48.014;0.232;2022-07-06T01:02:38;16.30;55.40
24668;DHT22;12793;48.014;0.232;2022-07-06T01:05:04;16.30;55.60
24668;DHT22;12793;48.014;0.232;2022-07-06T01:07:31;16.30;55.60
24668;DHT22;12793;48.014;0.232;2022-07-06T01:09:57;16.30;55.90
24668;DHT22;12793;48.014;0.232;2022-07-06T01:12:23;16.30;55.90
24668;DHT22;12793;48.014;0.232;2022-07-06T01:14:50;16.30;55.90
24668;DHT22;12793;48.014;0.232;2022-07-06T01:17:17;16.30;56.00
24668;DHT22;12793;48.014;0.232;2022-07-06T01:19:44;16.30;56.00
24668;DHT22;12793;48.014;0.232;2022-07-06T01:22:10;16.30;56.00
24668;DHT22;12793;48.014;0.232;2022-07-06T01:24:36;16.30;56.20
24668;DHT22;12793;48.014;0.232;2022-07-06T01:27:04;16.30;56.10
24668;DHT22;12793;48.014;0.232;2022-07-06T01:29:30;16.30;56.20
24668;DHT22;12793;48.014;0.232;2022-07-06T01:31:56;16.30;56.10
24668;DHT22;12793;48.014;0.232;2022-07-06T01:34:22;16.20;56.20
24668;DHT22;12793;48.014;0.232;2022-07-06T01:36:48;16.20;56.20
24668;DHT22;12793;48.014;0.232;2022-07-06T01:39:14;16.20;56.20
24668;DHT22;12793;48.014;0.232;2022-07-06T01:41:40;16.20;56.30
24668;DHT22;12793;48.014;0.232;2022-07-06T01:44:06;16.20;56.40
24668;DHT22;12793;48.014;0.232;2022-07-06T01:46:32;16.30;56.50
24668;DHT22;12793;48.014;0.232;2022-07-06T01:48:58;16.30;56.40
24668;DHT22;12793;48.014;0.232;2022-07-06T01:51:24;16.30;56.40
24668;DHT22;12793;48.014;0.232;2022-07-06T01:53:51;16.30;56.40
24668;DHT22;12793;48.014;0.232;2022-07-06T01:56:18;16.30;56.40
24668;DHT22;12793;48.014;0.232;2022-07-06T01:58:47;16.20;56.40
24668;DHT22;12793;48.014;0.232;2022-07-06T02:01:17;16.20;56.40
24668;DHT22;12793;48.014;0.232;2022-07-06T02:03:44;16.20;56.40
24668;DHT22;12793;48.014;0.232;2022-07-06T02:06:10;16.20;56.50
24668;DHT22;12793;48.014;0.232;2022-07-06T02:08:38;16.10;56.50
24668;DHT22;12793;48.014;0.232;2022-07-06T02:11:05;16.10;56.60
24668;DHT22;12793;48.014;0.232;2022-07-06T02:13:31;16.10;56.70
24668;DHT22;12793;48.014;0.232;2022-07-06T02:15:56;16.10;56.80
24668;DHT22;12793;48.014;0.232;2022-07-06T02:18:22;16.10;56.80
24668;DHT22;12793;48.014;0.232;2022-07-06T02:20:48;16.10;56.90
24668;DHT22;12793;48.014;0.232;2022-07-06T02:23:14;16.10;56.80
24668;DHT22;12793;48.014;0.232;2022-07-06T02:25:39;16.10;56.90
24668;DHT22;12793;48.014;0.232;2022-07-06T02:28:05;16.10;56.90
24668;DHT22;12793;48.014;0.232;2022-07-06T02:30:31;16.10;56.90
24668;DHT22;12793;48.014;0.232;2022-07-06T02:32:56;16.00;57.00
24668;DHT22;12793;48.014;0.232;2022-07-06T02:35:22;16.00;57.00
24668;DHT22;12793;48.014;0.232;2022-07-06T02:37:48;16.00;57.10
24668;DHT22;12793;48.014;0.232;2022-07-06T02:40:14;16.00;57.10
24668;DHT22;12793;48.014;0.232;2022-07-06T02:42:40;16.00;57.10
24668;DHT22;12793;48.014;0.232;2022-07-06T02:45:06;16.00;57.10
24668;DHT22;12793;48.014;0.232;2022-07-06T02:47:32;16.00;57.10
24668;DHT22;12793;48.014;0.232;2022-07-06T02:49:58;15.90;57.10
24668;DHT22;12793;48.014;0.232;2022-07-06T02:52:23;15.90;57.10
24668;DHT22;12793;48.014;0.232;2022-07-06T02:54:49;15.90;57.40
24668;DHT22;12793;48.014;0.232;2022-07-06T02:57:18;15.80;57.50
24668;DHT22;12793;48.014;0.232;2022-07-06T02:59:45;15.80;57.60
24668;DHT22;12793;48.014;0.232;2022-07-06T03:02:11;15.80;57.70
24668;DHT22;12793;48.014;0.232;2022-07-06T03:04:37;15.90;57.80
24668;DHT22;12793;48.014;0.232;2022-07-06T03:07:03;15.90;57.70
24668;DHT22;12793;48.014;0.232;2022-07-06T03:09:28;15.90;57.70
24668;DHT22;12793;48.014;0.232;2022-07-06T03:11:54;15.90;57.80
24668;DHT22;12793;48.014;0.232;2022-07-06T03:14:20;15.90;57.70
24668;DHT22;12793;48.014;0.232;2022-07-06T03:16:46;15.90;57.80
24668;DHT22;12793;48.014;0.232;2022-07-06T03:19:11;15.90;57.70
24668;DHT22;12793;48.014;0.232;2022-07-06T03:21:37;15.80;57.80
24668;DHT22;12793;48.014;0.232;2022-07-06T03:24:03;15.80;57.90
24668;DHT22;12793;48.014;0.232;2022-07-06T03:26:29;15.80;58.10
24668;DHT22;12793;48.014;0.232;2022-07-06T03:28:55;15.80;58.20
24668;DHT22;12793;48.014;0.232;2022-07-06T03:31:21;15.80;58.20
24668;DHT22;12793;48.014;0.232;2022-07-06T03:33:46;15.80;58.10
24668;DHT22;12793;48.014;0.232;2022-07-06T03:36:12;15.80;58.20
24668;DHT22;12793;48.014;0.232;2022-07-06T03:38:38;15.80;58.20
24668;DHT22;12793;48.014;0.232;2022-07-06T03:41:04;15.80;58.40
24668;DHT22;12793;48.014;0.232;2022-07-06T03:43:30;15.80;58.30
24668;DHT22;12793;48.014;0.232;2022-07-06T03:45:55;15.80;58.30
24668;DHT22;12793;48.014;0.232;2022-07-06T03:48:21;15.70;58.30
24668;DHT22;12793;48.014;0.232;2022-07-06T03:50:47;15.70;58.40
24668;DHT22;12793;48.014;0.232;2022-07-06T03:53:13;15.70;58.50
24668;DHT22;12793;48.014;0.232;2022-07-06T03:55:38;15.70;58.50
24668;DHT22;12793;48.014;0.232;2022-07-06T03:58:04;15.60;58.50
24668;DHT22;12793;48.014;0.232;2022-07-06T04:00:30;15.60;58.50
24668;DHT22;12793;48.014;0.232;2022-07-06T04:02:55;15.60;58.50
24668;DHT22;12793;48.014;0.232;2022-07-06T04:05:21;15.60;58.60
24668;DHT22;12793;48.014;0.232;2022-07-06T04:07:48;15.60;59.10
24668;DHT22;12793;48.014;0.232;2022-07-06T04:10:15;15.50;58.60
24668;DHT22;12793;48.014;0.232;2022-07-06T04:12:42;15.50;58.70
24668;DHT22;12793;48.014;0.232;2022-07-06T04:15:09;15.50;58.80
24668;DHT22;12793;48.014;0.232;2022-07-06T04:17:35;15.50;58.90
24668;DHT22;12793;48.014;0.232;2022-07-06T04:20:23;15.40;58.90
24668;DHT22;12793;48.014;0.232;2022-07-06T04:22:50;15.40;59.00
24668;DHT22;12793;48.014;0.232;2022-07-06T04:25:16;15.40;59.10
24668;DHT22;12793;48.014;0.232;2022-07-06T04:27:42;15.40;59.10
24668;DHT22;12793;48.014;0.232;2022-07-06T04:30:08;15.40;59.20
24668;DHT22;12793;48.014;0.232;2022-07-06T04:32:35;15.40;59.20
24668;DHT22;12793;48.014;0.232;2022-07-06T04:35:01;15.30;59.20
24668;DHT22;12793;48.014;0.232;2022-07-06T04:37:27;15.30;59.30
24668;DHT22;12793;48.014;0.232;2022-07-06T04:39:52;15.30;59.30
24668;DHT22;12793;48.014;0.232;2022-07-06T04:42:18;15.30;59.30
24668;DHT22;12793;48.014;0.232;2022-07-06T04:44:44;15.30;59.50
24668;DHT22;12793;48.014;0.232;2022-07-06T04:47:12;15.30;59.60
24668;DHT22;12793;48.014;0.232;2022-07-06T04:49:38;15.20;59.70
24668;DHT22;12793;48.014;0.232;2022-07-06T04:52:04;15.20;60.00
24668;DHT22;12793;48.014;0.232;2022-07-06T04:54:30;15.20;60.10
24668;DHT22;12793;48.014;0.232;2022-07-06T04:56:56;15.20;60.10
24668;DHT22;12793;48.014;0.232;2022-07-06T04:59:22;15.20;60.20
24668;DHT22;12793;48.014;0.232;2022-07-06T05:01:48;15.20;60.40
24668;DHT22;12793;48.014;0.232;2022-07-06T05:04:14;15.20;60.60
24668;DHT22;12793;48.014;0.232;2022-07-06T05:06:39;15.30;60.80
24668;DHT22;12793;48.014;0.232;2022-07-06T05:09:05;15.30;60.80
24668;DHT22;12793;48.014;0.232;2022-07-06T05:11:31;15.30;60.90
24668;DHT22;12793;48.014;0.232;2022-07-06T05:13:57;15.30;60.80
24668;DHT22;12793;48.014;0.232;2022-07-06T05:16:23;15.40;61.00
24668;DHT22;12793;48.014;0.232;2022-07-06T05:18:49;15.40;61.10
24668;DHT22;12793;48.014;0.232;2022-07-06T05:21:14;15.40;61.50
24668;DHT22;12793;48.014;0.232;2022-07-06T05:23:40;15.40;61.40
24668;DHT22;12793;48.014;0.232;2022-07-06T05:26:06;15.50;61.50
24668;DHT22;12793;48.014;0.232;2022-07-06T05:28:32;15.50;61.60
24668;DHT22;12793;48.014;0.232;2022-07-06T05:30:57;15.50;61.80
24668;DHT22;12793;48.014;0.232;2022-07-06T05:33:23;15.50;61.80
24668;DHT22;12793;48.014;0.232;2022-07-06T05:35:49;15.60;61.90
24668;DHT22;12793;48.014;0.232;2022-07-06T05:38:15;15.60;62.40
24668;DHT22;12793;48.014;0.232;2022-07-06T05:40:41;15.60;62.40
24668;DHT22;12793;48.014;0.232;2022-07-06T05:43:07;15.70;62.60
24668;DHT22;12793;48.014;0.232;2022-07-06T05:45:32;15.70;62.70
24668;DHT22;12793;48.014;0.232;2022-07-06T05:47:58;15.70;63.40
24668;DHT22;12793;48.014;0.232;2022-07-06T05:50:42;15.80;62.70
24668;DHT22;12793;48.014;0.232;2022-07-06T05:53:08;15.90;62.70
24668;DHT22;12793;48.014;0.232;2022-07-06T05:55:34;15.90;62.90
24668;DHT22;12793;48.014;0.232;2022-07-06T05:57:59;16.00;63.00
24668;DHT22;12793;48.014;0.232;2022-07-06T06:00:27;16.00;62.90
24668;DHT22;12793;48.014;0.232;2022-07-06T06:02:53;16.10;62.90
24668;DHT22;12793;48.014;0.232;2022-07-06T06:05:19;16.10;62.90
24668;DHT22;12793;48.014;0.232;2022-07-06T06:07:46;16.20;62.90
24668;DHT22;12793;48.014;0.232;2022-07-06T06:10:14;16.30;62.90
24668;DHT22;12793;48.014;0.232;2022-07-06T06:12:41;16.40;62.80
24668;DHT22;12793;48.014;0.232;2022-07-06T06:15:07;16.50;63.00
24668;DHT22;12793;48.014;0.232;2022-07-06T06:17:33;16.50;62.90
24668;DHT22;12793;48.014;0.232;2022-07-06T06:20:00;16.60;62.80
24668;DHT22;12793;48.014;0.232;2022-07-06T06:22:26;16.70;62.70
24668;DHT22;12793;48.014;0.232;2022-07-06T06:24:52;16.80;62.70
24668;DHT22;12793;48.014;0.232;2022-07-06T06:27:18;16.80;62.70
24668;DHT22;12793;48.014;0.232;2022-07-06T06:29:43;17.00;63.40
24668;DHT22;12793;48.014;0.232;2022-07-06T06:32:11;17.00;62.60
24668;DHT22;12793;48.014;0.232;2022-07-06T06:34:37;17.10;62.60
24668;DHT22;12793;48.014;0.232;2022-07-06T06:37:03;17.20;62.40
24668;DHT22;12793;48.014;0.232;2022-07-06T06:39:29;17.30;62.20
24668;DHT22;12793;48.014;0.232;2022-07-06T06:41:55;17.30;62.00
24668;DHT22;12793;48.014;0.232;2022-07-06T06:44:20;17.40;61.90
24668;DHT22;12793;48.014;0.232;2022-07-06T06:46:49;17.50;61.90
24668;DHT22;12793;48.014;0.232;2022-07-06T06:49:15;17.60;61.70
24668;DHT22;12793;48.014;0.232;2022-07-06T06:51:41;17.70;61.50
24668;DHT22;12793;48.014;0.232;2022-07-06T06:54:07;17.70;61.30
24668;DHT22;12793;48.014;0.232;2022-07-06T06:56:32;17.80;61.00
24668;DHT22;12793;48.014;0.232;2022-07-06T06:58:58;17.90;60.70
24668;DHT22;12793;48.014;0.232;2022-07-06T07:01:24;18.00;60.50
24668;DHT22;12793;48.014;0.232;2022-07-06T07:03:52;18.00;60.40
24668;DHT22;12793;48.014;0.232;2022-07-06T07:06:19;18.10;60.30
24668;DHT22;12793;48.014;0.232;2022-07-06T07:08:45;18.20;60.10
24668;DHT22;12793;48.014;0.232;2022-07-06T07:11:10;18.20;59.90
24668;DHT22;12793;48.014;0.232;2022-07-06T07:13:36;18.30;59.70
24668;DHT22;12793;48.014;0.232;2022-07-06T07:16:01;18.40;59.50
24668;DHT22;12793;48.014;0.232;2022-07-06T07:18:27;18.40;59.30
24668;DHT22;12793;48.014;0.232;2022-07-06T07:20:53;18.50;59.20
24668;DHT22;12793;48.014;0.232;2022-07-06T07:23:18;18.50;59.10
24668;DHT22;12793;48.014;0.232;2022-07-06T07:25:47;18.60;59.00
24668;DHT22;12793;48.014;0.232;2022-07-06T07:28:13;18.70;58.80
24668;DHT22;12793;48.014;0.232;2022-07-06T07:30:39;18.80;58.60
24668;DHT22;12793;48.014;0.232;2022-07-06T07:33:05;18.90;58.30
24668;DHT22;12793;48.014;0.232;2022-07-06T07:35:31;19.00;58.10
24668;DHT22;12793;48.014;0.232;2022-07-06T07:37:57;19.10;58.00
24668;DHT22;12793;48.014;0.232;2022-07-06T07:40:22;19.20;57.90
24668;DHT22;12793;48.014;0.232;2022-07-06T07:42:48;19.30;57.60
24668;DHT22;12793;48.014;0.232;2022-07-06T07:45:14;19.40;57.30
24668;DHT22;12793;48.014;0.232;2022-07-06T07:47:39;19.50;56.90
24668;DHT22;12793;48.014;0.232;2022-07-06T07:50:06;19.50;56.70
24668;DHT22;12793;48.014;0.232;2022-07-06T07:52:32;19.60;57.10
24668;DHT22;12793;48.014;0.232;2022-07-06T07:54:58;19.70;56.30
24668;DHT22;12793;48.014;0.232;2022-07-06T07:57:24;19.80;56.20
24668;DHT22;12793;48.014;0.232;2022-07-06T07:59:50;19.90;56.20
24668;DHT22;12793;48.014;0.232;2022-07-06T08:02:15;20.00;55.80
24668;DHT22;12793;48.014;0.232;2022-07-06T08:04:41;20.10;55.60
24668;DHT22;12793;48.014;0.232;2022-07-06T08:07:07;20.10;55.40
24668;DHT22;12793;48.014;0.232;2022-07-06T08:09:33;20.20;55.30
24668;DHT22;12793;48.014;0.232;2022-07-06T08:11:59;20.30;55.30
24668;DHT22;12793;48.014;0.232;2022-07-06T08:14:25;20.40;55.10
24668;DHT22;12793;48.014;0.232;2022-07-06T08:16:51;20.50;54.80
24668;DHT22;12793;48.014;0.232;2022-07-06T08:19:18;20.60;54.80
24668;DHT22;12793;48.014;0.232;2022-07-06T08:21:43;20.70;54.80
24668;DHT22;12793;48.014;0.232;2022-07-06T08:24:10;20.80;54.70
24668;DHT22;12793;48.014;0.232;2022-07-06T08:26:36;20.90;54.60
24668;DHT22;12793;48.014;0.232;2022-07-06T08:29:01;21.10;54.30
24668;DHT22;12793;48.014;0.232;2022-07-06T08:31:27;21.20;54.20
24668;DHT22;12793;48.014;0.232;2022-07-06T08:33:54;21.30;53.90
24668;DHT22;12793;48.014;0.232;2022-07-06T08:36:20;21.30;53.60
24668;DHT22;12793;48.014;0.232;2022-07-06T08:38:47;21.50;53.30
24668;DHT22;12793;48.014;0.232;2022-07-06T08:41:15;21.50;53.00
24668;DHT22;12793;48.014;0.232;2022-07-06T08:43:41;21.60;53.00
24668;DHT22;12793;48.014;0.232;2022-07-06T08:46:07;21.70;52.90
24668;DHT22;12793;48.014;0.232;2022-07-06T08:48:36;21.80;52.60
24668;DHT22;12793;48.014;0.232;2022-07-06T08:51:04;21.90;52.30
24668;DHT22;12793;48.014;0.232;2022-07-06T08:53:30;22.00;52.10
24668;DHT22;12793;48.014;0.232;2022-07-06T08:55:55;22.10;51.70
24668;DHT22;12793;48.014;0.232;2022-07-06T08:58:24;22.20;51.40
24668;DHT22;12793;48.014;0.232;2022-07-06T09:00:50;22.30;51.20
24668;DHT22;12793;48.014;0.232;2022-07-06T09:03:16;22.40;50.70
24668;DHT22;12793;48.014;0.232;2022-07-06T09:05:45;22.50;50.70
24668;DHT22;12793;48.014;0.232;2022-07-06T09:08:12;22.60;50.40
24668;DHT22;12793;48.014;0.232;2022-07-06T09:10:38;22.70;50.40
24668;DHT22;12793;48.014;0.232;2022-07-06T09:13:04;22.70;50.30
24668;DHT22;12793;48.014;0.232;2022-07-06T09:15:31;22.90;50.10
24668;DHT22;12793;48.014;0.232;2022-07-06T09:17:57;23.00;49.60
24668;DHT22;12793;48.014;0.232;2022-07-06T09:20:23;23.10;49.70
24668;DHT22;12793;48.014;0.232;2022-07-06T09:22:50;23.20;49.60
24668;DHT22;12793;48.014;0.232;2022-07-06T09:25:16;23.30;49.60
24668;DHT22;12793;48.014;0.232;2022-07-06T09:27:46;23.40;49.50
24668;DHT22;12793;48.014;0.232;2022-07-06T09:30:16;23.50;49.20
24668;DHT22;12793;48.014;0.232;2022-07-06T09:32:50;23.60;48.60
24668;DHT22;12793;48.014;0.232;2022-07-06T09:35:25;23.70;48.40
24668;DHT22;12793;48.014;0.232;2022-07-06T09:40:34;23.90;47.70
24668;DHT22;12793;48.014;0.232;2022-07-06T09:45:35;24.10;47.70
24668;DHT22;12793;48.014;0.232;2022-07-06T09:48:10;24.10;47.50
24668;DHT22;12793;48.014;0.232;2022-07-06T09:50:44;24.30;47.40
24668;DHT22;12793;48.014;0.232;2022-07-06T09:53:11;24.40;47.40
24668;DHT22;12793;48.014;0.232;2022-07-06T09:55:37;24.50;47.00
24668;DHT22;12793;48.014;0.232;2022-07-06T09:58:03;24.60;46.70
24668;DHT22;12793;48.014;0.232;2022-07-06T10:00:29;24.70;46.50
24668;DHT22;12793;48.014;0.232;2022-07-06T10:02:55;24.80;46.40
24668;DHT22;12793;48.014;0.232;2022-07-06T10:05:22;24.90;46.00
24668;DHT22;12793;48.014;0.232;2022-07-06T10:07:57;25.00;45.80
24668;DHT22;12793;48.014;0.232;2022-07-06T10:10:29;25.10;44.90
24668;DHT22;12793;48.014;0.232;2022-07-06T10:12:56;25.20;44.70
24668;DHT22;12793;48.014;0.232;2022-07-06T10:15:24;25.20;44.70
24668;DHT22;12793;48.014;0.232;2022-07-06T10:17:50;25.20;44.90
24668;DHT22;12793;48.014;0.232;2022-07-06T10:20:18;25.40;45.00
24668;DHT22;12793;48.014;0.232;2022-07-06T10:22:44;25.40;44.70
24668;DHT22;12793;48.014;0.232;2022-07-06T10:25:11;25.50;44.40
24668;DHT22;12793;48.014;0.232;2022-07-06T10:27:37;25.60;44.10
24668;DHT22;12793;48.014;0.232;2022-07-06T10:30:05;25.60;44.00
24668;DHT22;12793;48.014;0.232;2022-07-06T10:32:31;25.80;44.00
24668;DHT22;12793;48.014;0.232;2022-07-06T10:34:56;25.90;44.00
24668;DHT22;12793;48.014;0.232;2022-07-06T10:37:26;26.00;43.80
24668;DHT22;12793;48.014;0.232;2022-07-06T10:39:53;26.20;43.90
24668;DHT22;12793;48.014;0.232;2022-07-06T10:42:48;26.30;43.50
24668;DHT22;12793;48.014;0.232;2022-07-06T10:55:40;27.10;42.60
24668;DHT22;12793;48.014;0.232;2022-07-06T10:58:06;27.20;42.40
24668;DHT22;12793;48.014;0.232;2022-07-06T11:06:21;27.70;42.20
24668;DHT22;12793;48.014;0.232;2022-07-06T11:13:54;27.90;41.10
24668;DHT22;12793;48.014;0.232;2022-07-06T11:16:23;28.00;41.00
24668;DHT22;12793;48.014;0.232;2022-07-06T11:19:10;28.10;41.00
24668;DHT22;12793;48.014;0.232;2022-07-06T11:24:05;28.50;40.80
24668;DHT22;12793;48.014;0.232;2022-07-06T11:26:32;28.50;40.00
24668;DHT22;12793;48.014;0.232;2022-07-06T11:28:59;28.50;40.10
24668;DHT22;12793;48.014;0.232;2022-07-06T11:31:27;28.60;40.30
24668;DHT22;12793;48.014;0.232;2022-07-06T11:33:53;28.70;40.20
24668;DHT22;12793;48.014;0.232;2022-07-06T11:36:20;28.80;39.50
24668;DHT22;12793;48.014;0.232;2022-07-06T11:38:48;28.90;39.90
24668;DHT22;12793;48.014;0.232;2022-07-06T11:41:16;29.00;39.70
24668;DHT22;12793;48.014;0.232;2022-07-06T11:43:46;29.20;39.50
24668;DHT22;12793;48.014;0.232;2022-07-06T11:49:05;29.40;39.40
24668;DHT22;12793;48.014;0.232;2022-07-06T11:51:36;29.60;38.80
24668;DHT22;12793;48.014;0.232;2022-07-06T11:54:12;29.80;38.70
24668;DHT22;12793;48.014;0.232;2022-07-06T11:56:55;30.00;38.70
24668;DHT22;12793;48.014;0.232;2022-07-06T11:59:32;30.10;38.30
24668;DHT22;12793;48.014;0.232;2022-07-06T12:04:29;30.40;37.80
24668;DHT22;12793;48.014;0.232;2022-07-06T12:06:57;30.40;37.80
24668;DHT22;12793;48.014;0.232;2022-07-06T12:09:24;30.50;38.00
24668;DHT22;12793;48.014;0.232;2022-07-06T12:11:50;30.50;37.70
24668;DHT22;12793;48.014;0.232;2022-07-06T12:14:20;30.60;38.10
24668;DHT22;12793;48.014;0.232;2022-07-06T12:16:48;30.60;38.30
24668;DHT22;12793;48.014;0.232;2022-07-06T12:19:15;30.80;38.20
24668;DHT22;12793;48.014;0.232;2022-07-06T12:21:49;30.90;37.50
24668;DHT22;12793;48.014;0.232;2022-07-06T12:24:23;30.90;37.50
24668;DHT22;12793;48.014;0.232;2022-07-06T12:26:50;30.80;37.10
24668;DHT22;12793;48.014;0.232;2022-07-06T12:29:17;30.80;37.50
24668;DHT22;12793;48.014;0.232;2022-07-06T12:34:20;30.70;37.50
24668;DHT22;12793;48.014;0.232;2022-07-06T12:36:48;30.80;37.40
24668;DHT22;12793;48.014;0.232;2022-07-06T12:39:16;30.90;37.60
24668;DHT22;12793;48.014;0.232;2022-07-06T12:41:54;31.00;37.20
24668;DHT22;12793;48.014;0.232;2022-07-06T12:44:24;31.10;37.60
24668;DHT22;12793;48.014;0.232;2022-07-06T12:47:03;31.10;37.40
24668;DHT22;12793;48.014;0.232;2022-07-06T12:49:29;31.30;37.40
24668;DHT22;12793;48.014;0.232;2022-07-06T12:52:01;31.40;37.40
24668;DHT22;12793;48.014;0.232;2022-07-06T12:59:48;31.90;37.00
24668;DHT22;12793;48.014;0.232;2022-07-06T13:02:26;32.00;36.20
24668;DHT22;12793;48.014;0.232;2022-07-06T13:04:59;32.00;35.80
24668;DHT22;12793;48.014;0.232;2022-07-06T13:07:26;31.90;36.10
24668;DHT22;12793;48.014;0.232;2022-07-06T13:09:53;32.00;35.90
24668;DHT22;12793;48.014;0.232;2022-07-06T13:12:20;31.90;36.00
24668;DHT22;12793;48.014;0.232;2022-07-06T13:14:46;31.90;35.80
24668;DHT22;12793;48.014;0.232;2022-07-06T13:17:12;32.00;36.10
24668;DHT22;12793;48.014;0.232;2022-07-06T13:19:38;32.00;35.80
24668;DHT22;12793;48.014;0.232;2022-07-06T13:22:04;32.10;35.50
24668;DHT22;12793;48.014;0.232;2022-07-06T13:24:29;32.20;35.70
24668;DHT22;12793;48.014;0.232;2022-07-06T13:26:56;32.20;35.20
24668;DHT22;12793;48.014;0.232;2022-07-06T13:29:22;32.30;35.00
24668;DHT22;12793;48.014;0.232;2022-07-06T13:31:48;32.20;35.30
24668;DHT22;12793;48.014;0.232;2022-07-06T13:34:13;32.30;35.60
24668;DHT22;12793;48.014;0.232;2022-07-06T13:36:39;32.40;35.30
24668;DHT22;12793;48.014;0.232;2022-07-06T13:39:05;32.50;35.70
24668;DHT22;12793;48.014;0.232;2022-07-06T13:41:32;32.60;35.10
24668;DHT22;12793;48.014;0.232;2022-07-06T13:43:58;32.60;35.20
24668;DHT22;12793;48.014;0.232;2022-07-06T13:46:27;32.60;35.20
24668;DHT22;12793;48.014;0.232;2022-07-06T13:48:53;32.50;35.00
24668;DHT22;12793;48.014;0.232;2022-07-06T13:51:19;32.40;35.00
24668;DHT22;12793;48.014;0.232;2022-07-06T13:53:45;32.30;35.30
24668;DHT22;12793;48.014;0.232;2022-07-06T13:56:12;32.30;35.70
24668;DHT22;12793;48.014;0.232;2022-07-06T13:58:38;32.50;35.50
24668;DHT22;12793;48.014;0.232;2022-07-06T14:01:04;32.70;35.30
24668;DHT22;12793;48.014;0.232;2022-07-06T14:03:30;32.80;35.00
24668;DHT22;12793;48.014;0.232;2022-07-06T14:05:57;32.90;34.80
24668;DHT22;12793;48.014;0.232;2022-07-06T14:08:24;33.00;34.40
24668;DHT22;12793;48.014;0.232;2022-07-06T14:10:50;33.00;34.40
24668;DHT22;12793;48.014;0.232;2022-07-06T14:13:15;33.00;34.40
24668;DHT22;12793;48.014;0.232;2022-07-06T14:15:44;33.00;34.50
24668;DHT22;12793;48.014;0.232;2022-07-06T14:18:10;33.10;34.50
24668;DHT22;12793;48.014;0.232;2022-07-06T14:20:35;33.10;34.50
24668;DHT22;12793;48.014;0.232;2022-07-06T14:23:01;33.20;34.10
24668;DHT22;12793;48.014;0.232;2022-07-06T14:25:27;33.30;34.20
24668;DHT22;12793;48.014;0.232;2022-07-06T14:27:53;33.30;34.20
24668;DHT22;12793;48.014;0.232;2022-07-06T14:30:19;33.40;34.30
24668;DHT22;12793;48.014;0.232;2022-07-06T14:32:45;33.40;33.80
24668;DHT22;12793;48.014;0.232;2022-07-06T14:35:11;33.30;33.40
24668;DHT22;12793;48.014;0.232;2022-07-06T14:37:37;33.20;33.50
24668;DHT22;12793;48.014;0.232;2022-07-06T14:40:03;33.10;33.90
24668;DHT22;12793;48.014;0.232;2022-07-06T14:42:29;33.10;33.80
24668;DHT22;12793;48.014;0.232;2022-07-06T14:44:55;33.00;33.60
24668;DHT22;12793;48.014;0.232;2022-07-06T14:47:20;32.90;33.40
24668;DHT22;12793;48.014;0.232;2022-07-06T14:49:46;32.80;33.70
24668;DHT22;12793;48.014;0.232;2022-07-06T14:52:12;32.80;34.20
24668;DHT22;12793;48.014;0.232;2022-07-06T14:54:38;32.90;34.20
24668;DHT22;12793;48.014;0.232;2022-07-06T14:57:04;32.90;34.20
24668;DHT22;12793;48.014;0.232;2022-07-06T14:59:33;33.00;34.20
24668;DHT22;12793;48.014;0.232;2022-07-06T15:01:59;33.00;33.80
24668;DHT22;12793;48.014;0.232;2022-07-06T15:04:25;32.90;33.70
24668;DHT22;12793;48.014;0.232;2022-07-06T15:06:51;32.80;33.40
24668;DHT22;12793;48.014;0.232;2022-07-06T15:09:17;32.80;33.50
24668;DHT22;12793;48.014;0.232;2022-07-06T15:11:42;32.60;33.60
24668;DHT22;12793;48.014;0.232;2022-07-06T15:14:10;32.60;33.90
24668;DHT22;12793;48.014;0.232;2022-07-06T15:16:37;32.60;33.80
24668;DHT22;12793;48.014;0.232;2022-07-06T15:19:03;32.60;33.80
24668;DHT22;12793;48.014;0.232;2022-07-06T15:21:28;32.60;33.90
24668;DHT22;12793;48.014;0.232;2022-07-06T15:23:55;32.60;33.80
24668;DHT22;12793;48.014;0.232;2022-07-06T15:26:21;32.60;34.20
24668;DHT22;12793;48.014;0.232;2022-07-06T15:28:47;32.60;33.60
24668;DHT22;12793;48.014;0.232;2022-07-06T15:31:12;32.60;33.50
24668;DHT22;12793;48.014;0.232;2022-07-06T15:33:38;32.50;33.60
24668;DHT22;12793;48.014;0.232;2022-07-06T15:36:04;32.50;33.70
24668;DHT22;12793;48.014;0.232;2022-07-06T15:38:30;32.50;33.80
24668;DHT22;12793;48.014;0.232;2022-07-06T15:40:59;32.50;34.00
24668;DHT22;12793;48.014;0.232;2022-07-06T15:43:27;32.50;33.80
24668;DHT22;12793;48.014;0.232;2022-07-06T15:45:56;32.50;33.80
24668;DHT22;12793;48.014;0.232;2022-07-06T15:48:23;32.50;33.90
24668;DHT22;12793;48.014;0.232;2022-07-06T15:50:49;32.50;34.20
24668;DHT22;12793;48.014;0.232;2022-07-06T15:53:15;32.40;33.50
24668;DHT22;12793;48.014;0.232;2022-07-06T15:55:41;32.30;34.00
24668;DHT22;12793;48.014;0.232;2022-07-06T15:58:07;32.30;34.10
24668;DHT22;12793;48.014;0.232;2022-07-06T16:00:33;32.30;34.00
24668;DHT22;12793;48.014;0.232;2022-07-06T16:02:59;32.30;34.10
24668;DHT22;12793;48.014;0.232;2022-07-06T16:05:25;32.30;34.30
24668;DHT22;12793;48.014;0.232;2022-07-06T16:07:52;32.30;34.40
24668;DHT22;12793;48.014;0.232;2022-07-06T16:10:18;32.30;33.90